sensor_id;sensor_type;location;lat;lon;timestamp;P1;durP1;ratioP1;P2;durP2;ratioP2
33495;SDS011;19836;55.812;37.560;2023-03-14T06:08:40;3.08;;;2.58;;
33495;SDS011;19836;55.812;37.560;2023-03-14T06:28:11;4.43;;;2.50;;
33495;SDS011;19836;55.812;37.560;2023-03-14T06:43:53;4.70;;;2.33;;
33495;SDS011;19836;55.812;37.560;2023-03-14T06:46:20;4.40;;;2.75;;
33495;SDS011;19836;55.812;37.560;2023-03-14T06:48:46;3.92;;;2.60;;
33495;SDS011;19836;55.812;37.560;2023-03-14T06:51:13;5.63;;;3.40;;
33495;SDS011;19836;55.812;37.560;2023-03-14T06:53:39;3.15;;;2.17;;
33495;SDS011;19836;55.812;37.560;2023-03-14T06:56:06;4.38;;;2.90;;
33495;SDS011;19836;55.812;37.560;2023-03-14T06:58:33;4.82;;;3.15;;
33495;SDS011;19836;55.812;37.560;2023-03-14T07:01:01;3.50;;;2.05;;
33495;SDS011;19836;55.812;37.560;2023-03-14T07:03:33;5.78;;;3.05;;
33495;SDS011;19836;55.812;37.560;2023-03-14T07:06:00;3.28;;;2.63;;
33495;SDS011;19836;55.812;37.560;2023-03-14T07:08:26;4.22;;;2.45;;
33495;SDS011;19836;55.812;37.560;2023-03-14T07:10:52;3.83;;;2.95;;
33495;SDS011;19836;55.812;37.560;2023-03-14T07:13:24;3.53;;;2.55;;
33495;SDS011;19836;55.812;37.560;2023-03-14T07:16:01;7.28;;;3.15;;
33495;SDS011;19836;55.812;37.560;2023-03-14T07:18:27;4.25;;;2.92;;
33495;SDS011;19836;55.812;37.560;2023-03-14T07:20:55;4.35;;;2.88;;
33495;SDS011;19836;55.812;37.560;2023-03-14T07:23:21;4.70;;;2.88;;
33495;SDS011;19836;55.812;37.560;2023-03-14T07:25:50;5.72;;;2.42;;
33495;SDS011;19836;55.812;37.560;2023-03-14T07:28:25;3.13;;;2.78;;
33495;SDS011;19836;55.812;37.560;2023-03-14T07:31:00;4.55;;;2.85;;
33495;SDS011;19836;55.812;37.560;2023-03-14T07:33:38;4.38;;;2.60;;
33495;SDS011;19836;55.812;37.560;2023-03-14T07:36:04;4.40;;;2.85;;
33495;SDS011;19836;55.812;37.560;2023-03-14T07:38:33;7.30;;;2.40;;
33495;SDS011;19836;55.812;37.560;2023-03-14T07:41:28;6.10;;;2.83;;
33495;SDS011;19836;55.812;37.560;2023-03-14T07:44:13;6.10;;;2.70;;
33495;SDS011;19836;55.812;37.560;2023-03-14T07:46:45;3.70;;;3.03;;
33495;SDS011;19836;55.812;37.560;2023-03-14T07:49:14;4.72;;;2.90;;
33495;SDS011;19836;55.812;37.560;2023-03-14T07:51:40;4.55;;;2.20;;
33495;SDS011;19836;55.812;37.560;2023-03-14T07:54:09;4.25;;;3.03;;
33495;SDS011;19836;55.812;37.560;2023-03-14T07:56:39;5.68;;;2.20;;
33495;SDS011;19836;55.812;37.560;2023-03-14T07:59:05;3.97;;;2.80;;
33495;SDS011;19836;55.812;37.560;2023-03-14T08:01:36;3.00;;;2.38;;
33495;SDS011;19836;55.812;37.560;2023-03-14T08:04:02;4.22;;;2.75;;
33495;SDS011;19836;55.812;37.560;2023-03-14T08:06:28;4.90;;;2.80;;
33495;SDS011;19836;55.812;37.560;2023-03-14T08:08:55;4.57;;;2.90;;
33495;SDS011;19836;55.812;37.560;2023-03-14T08:11:21;5.28;;;3.20;;
33495;SDS011;19836;55.812;37.560;2023-03-14T08:13:50;3.30;;;2.50;;
33495;SDS011;19836;55.812;37.560;2023-03-14T08:16:17;5.35;;;2.90;;
33495;SDS011;19836;55.812;37.560;2023-03-14T08:18:44;3.83;;;2.80;;
33495;SDS011;19836;55.812;37.560;2023-03-14T08:21:11;4.80;;;2.95;;
33495;SDS011;19836;55.812;37.560;2023-03-14T08:23:38;3.15;;;2.80;;
33495;SDS011;19836;55.812;37.560;2023-03-14T08:26:04;3.42;;;2.08;;
33495;SDS011;19836;55.812;37.560;2023-03-14T08:28:33;3.42;;;2.88;;
33495;SDS011;19836;55.812;37.560;2023-03-14T08:31:00;2.50;;;2.22;;
33495;SDS011;19836;55.812;37.560;2023-03-14T08:33:28;2.97;;;2.28;;
33495;SDS011;19836;55.812;37.560;2023-03-14T08:35:55;4.97;;;3.10;;
33495;SDS011;19836;55.812;37.560;2023-03-14T08:38:23;4.05;;;2.90;;
33495;SDS011;19836;55.812;37.560;2023-03-14T08:40:54;4.18;;;2.95;;
33495;SDS011;19836;55.812;37.560;2023-03-14T08:43:22;4.68;;;3.25;;
33495;SDS011;19836;55.812;37.560;2023-03-14T08:45:48;3.47;;;2.67;;
33495;SDS011;19836;55.812;37.560;2023-03-14T08:48:14;4.35;;;2.80;;
33495;SDS011;19836;55.812;37.560;2023-03-14T08:50:40;6.93;;;3.22;;
33495;SDS011;19836;55.812;37.560;2023-03-14T08:53:09;4.05;;;2.97;;
33495;SDS011;19836;55.812;37.560;2023-03-14T08:55:36;5.65;;;3.00;;
33495;SDS011;19836;55.812;37.560;2023-03-14T08:58:06;5.35;;;2.70;;
33495;SDS011;19836;55.812;37.560;2023-03-14T09:00:32;4.07;;;2.63;;
33495;SDS011;19836;55.812;37.560;2023-03-14T09:02:59;3.45;;;2.63;;
33495;SDS011;19836;55.812;37.560;2023-03-14T09:05:25;3.13;;;2.80;;
33495;SDS011;19836;55.812;37.560;2023-03-14T09:07:52;4.53;;;3.03;;
33495;SDS011;19836;55.812;37.560;2023-03-14T09:10:18;4.18;;;2.88;;
33495;SDS011;19836;55.812;37.560;2023-03-14T09:12:45;2.78;;;2.40;;
33495;SDS011;19836;55.812;37.560;2023-03-14T09:15:11;3.20;;;2.33;;
33495;SDS011;19836;55.812;37.560;2023-03-14T09:17:37;5.43;;;2.88;;
33495;SDS011;19836;55.812;37.560;2023-03-14T09:20:03;2.60;;;2.00;;
33495;SDS011;19836;55.812;37.560;2023-03-14T09:22:32;3.10;;;2.03;;
33495;SDS011;19836;55.812;37.560;2023-03-14T09:25:02;3.75;;;2.65;;
33495;SDS011;19836;55.812;37.560;2023-03-14T09:27:31;4.45;;;2.72;;
33495;SDS011;19836;55.812;37.560;2023-03-14T09:29:57;6.32;;;2.60;;
33495;SDS011;19836;55.812;37.560;2023-03-14T09:32:23;6.15;;;2.67;;
33495;SDS011;19836;55.812;37.560;2023-03-14T09:34:50;4.18;;;2.40;;
33495;SDS011;19836;55.812;37.560;2023-03-14T09:37:16;8.73;;;3.00;;
33495;SDS011;19836;55.812;37.560;2023-03-14T09:39:42;4.03;;;3.05;;
33495;SDS011;19836;55.812;37.560;2023-03-14T09:42:11;6.25;;;2.50;;
33495;SDS011;19836;55.812;37.560;2023-03-14T09:44:52;4.03;;;2.40;;
33495;SDS011;19836;55.812;37.560;2023-03-14T09:49:48;3.33;;;2.22;;
33495;SDS011;19836;55.812;37.560;2023-03-14T09:52:16;7.47;;;2.70;;
33495;SDS011;19836;55.812;37.560;2023-03-14T09:54:49;5.45;;;3.47;;
33495;SDS011;19836;55.812;37.560;2023-03-14T09:57:18;3.73;;;2.67;;
33495;SDS011;19836;55.812;37.560;2023-03-14T09:59:46;4.10;;;2.58;;
33495;SDS011;19836;55.812;37.560;2023-03-14T10:02:24;2.88;;;2.35;;
33495;SDS011;19836;55.812;37.560;2023-03-14T10:04:54;4.20;;;2.63;;
33495;SDS011;19836;55.812;37.560;2023-03-14T10:07:41;4.43;;;2.95;;
33495;SDS011;19836;55.812;37.560;2023-03-14T10:10:17;5.40;;;3.05;;
33495;SDS011;19836;55.812;37.560;2023-03-14T10:12:49;3.35;;;2.10;;
33495;SDS011;19836;55.812;37.560;2023-03-14T10:15:36;4.38;;;2.97;;
33495;SDS011;19836;55.812;37.560;2023-03-14T10:27:40;4.15;;;3.25;;
33495;SDS011;19836;55.812;37.560;2023-03-14T10:45:32;3.92;;;3.00;;
33495;SDS011;19836;55.812;37.560;2023-03-14T10:53:47;5.95;;;2.90;;
33495;SDS011;19836;55.812;37.560;2023-03-14T10:56:14;4.88;;;2.45;;
33495;SDS011;19836;55.812;37.560;2023-03-14T10:58:53;3.83;;;2.70;;
33495;SDS011;19836;55.812;37.560;2023-03-14T11:04:15;3.63;;;2.50;;
33495;SDS011;19836;55.812;37.560;2023-03-14T11:07:15;2.35;;;2.15;;
33495;SDS011;19836;55.812;37.560;2023-03-14T11:09:54;4.32;;;2.95;;
33495;SDS011;19836;55.812;37.560;2023-03-14T11:15:16;4.07;;;2.92;;
33495;SDS011;19836;55.812;37.560;2023-03-14T11:29:22;6.35;;;2.55;;
33495;SDS011;19836;55.812;37.560;2023-03-14T11:31:47;3.45;;;2.75;;
33495;SDS011;19836;55.812;37.560;2023-03-14T11:34:17;3.83;;;2.80;;
33495;SDS011;19836;55.812;37.560;2023-03-14T11:36:59;3.47;;;2.80;;
33495;SDS011;19836;55.812;37.560;2023-03-14T11:39:40;4.90;;;2.97;;
33495;SDS011;19836;55.812;37.560;2023-03-14T11:42:18;4.45;;;2.53;;
33495;SDS011;19836;55.812;37.560;2023-03-14T11:44:47;5.93;;;3.20;;
33495;SDS011;19836;55.812;37.560;2023-03-14T11:47:22;3.92;;;2.78;;
33495;SDS011;19836;55.812;37.560;2023-03-14T11:50:03;4.20;;;2.90;;
33495;SDS011;19836;55.812;37.560;2023-03-14T11:55:31;3.15;;;2.40;;
33495;SDS011;19836;55.812;37.560;2023-03-14T12:00:29;4.35;;;2.90;;
33495;SDS011;19836;55.812;37.560;2023-03-14T12:05:59;5.13;;;2.53;;
33495;SDS011;19836;55.812;37.560;2023-03-14T12:08:40;4.40;;;2.78;;
33495;SDS011;19836;55.812;37.560;2023-03-14T12:13:37;3.70;;;2.75;;
33495;SDS011;19836;55.812;37.560;2023-03-14T12:16:10;2.50;;;2.13;;
33495;SDS011;19836;55.812;37.560;2023-03-14T12:18:45;4.45;;;2.67;;
33495;SDS011;19836;55.812;37.560;2023-03-14T12:21:11;5.68;;;2.95;;
33495;SDS011;19836;55.812;37.560;2023-03-14T12:23:42;3.40;;;2.25;;
33495;SDS011;19836;55.812;37.560;2023-03-14T12:28:44;7.72;;;3.40;;
33495;SDS011;19836;55.812;37.560;2023-03-14T12:31:35;4.20;;;2.65;;
33495;SDS011;19836;55.812;37.560;2023-03-14T12:42:45;4.82;;;2.15;;
33495;SDS011;19836;55.812;37.560;2023-03-14T12:48:04;4.63;;;3.20;;
33495;SDS011;19836;55.812;37.560;2023-03-14T12:53:08;5.70;;;3.08;;
33495;SDS011;19836;55.812;37.560;2023-03-14T12:55:49;4.80;;;2.35;;
33495;SDS011;19836;55.812;37.560;2023-03-14T13:00:59;5.70;;;3.00;;
33495;SDS011;19836;55.812;37.560;2023-03-14T13:06:53;3.75;;;2.88;;
33495;SDS011;19836;55.812;37.560;2023-03-14T13:11:55;3.67;;;3.00;;
33495;SDS011;19836;55.812;37.560;2023-03-14T13:14:27;3.47;;;2.22;;
33495;SDS011;19836;55.812;37.560;2023-03-14T13:16:54;3.75;;;3.00;;
33495;SDS011;19836;55.812;37.560;2023-03-14T13:19:23;5.25;;;2.78;;
33495;SDS011;19836;55.812;37.560;2023-03-14T13:21:56;3.20;;;2.53;;
33495;SDS011;19836;55.812;37.560;2023-03-14T13:24:28;3.95;;;3.20;;
33495;SDS011;19836;55.812;37.560;2023-03-14T13:26:56;7.22;;;3.03;;
33495;SDS011;19836;55.812;37.560;2023-03-14T13:29:24;4.03;;;2.80;;
33495;SDS011;19836;55.812;37.560;2023-03-14T13:31:53;3.90;;;2.33;;
33495;SDS011;19836;55.812;37.560;2023-03-14T13:34:25;4.32;;;3.00;;
33495;SDS011;19836;55.812;37.560;2023-03-14T13:36:54;3.97;;;2.75;;
33495;SDS011;19836;55.812;37.560;2023-03-14T13:39:22;3.35;;;2.70;;
33495;SDS011;19836;55.812;37.560;2023-03-14T13:45:41;3.78;;;2.28;;
33495;SDS011;19836;55.812;37.560;2023-03-14T14:05:20;3.35;;;2.50;;
33495;SDS011;19836;55.812;37.560;2023-03-14T14:49:20;3.13;;;2.83;;
33495;SDS011;19836;55.812;37.560;2023-03-14T14:51:59;3.80;;;2.83;;
33495;SDS011;19836;55.812;37.560;2023-03-14T14:57:20;4.22;;;2.63;;
33495;SDS011;19836;55.812;37.560;2023-03-14T14:59:49;4.07;;;2.50;;
33495;SDS011;19836;55.812;37.560;2023-03-14T15:02:30;4.00;;;2.65;;
33495;SDS011;19836;55.812;37.560;2023-03-14T15:08:01;3.72;;;2.67;;
33495;SDS011;19836;55.812;37.560;2023-03-14T15:10:28;3.53;;;2.78;;
33495;SDS011;19836;55.812;37.560;2023-03-14T15:12:54;3.80;;;2.75;;
33495;SDS011;19836;55.812;37.560;2023-03-14T15:15:20;2.83;;;2.35;;
33495;SDS011;19836;55.812;37.560;2023-03-14T15:17:47;3.45;;;2.97;;
33495;SDS011;19836;55.812;37.560;2023-03-14T15:20:15;2.92;;;2.58;;
33495;SDS011;19836;55.812;37.560;2023-03-14T15:22:43;3.30;;;2.55;;
33495;SDS011;19836;55.812;37.560;2023-03-14T15:25:28;3.47;;;2.60;;
33495;SDS011;19836;55.812;37.560;2023-03-14T15:27:54;3.70;;;3.13;;
33495;SDS011;19836;55.812;37.560;2023-03-14T15:30:20;4.07;;;2.75;;
33495;SDS011;19836;55.812;37.560;2023-03-14T15:37:10;3.90;;;2.78;;
33495;SDS011;19836;55.812;37.560;2023-03-14T15:39:54;3.92;;;2.42;;
33495;SDS011;19836;55.812;37.560;2023-03-14T15:42:23;4.07;;;2.75;;
33495;SDS011;19836;55.812;37.560;2023-03-14T15:44:49;5.38;;;2.55;;
33495;SDS011;19836;55.812;37.560;2023-03-14T15:47:15;4.13;;;2.80;;
33495;SDS011;19836;55.812;37.560;2023-03-14T15:49:41;4.78;;;2.55;;
33495;SDS011;19836;55.812;37.560;2023-03-14T15:52:07;3.65;;;2.65;;
33495;SDS011;19836;55.812;37.560;2023-03-14T15:54:34;3.90;;;2.88;;
33495;SDS011;19836;55.812;37.560;2023-03-14T15:57:01;3.85;;;2.85;;
33495;SDS011;19836;55.812;37.560;2023-03-14T15:59:26;2.55;;;2.35;;
33495;SDS011;19836;55.812;37.560;2023-03-14T16:01:52;3.30;;;2.25;;
33495;SDS011;19836;55.812;37.560;2023-03-14T16:04:18;2.58;;;2.35;;
33495;SDS011;19836;55.812;37.560;2023-03-14T16:06:44;3.53;;;2.60;;
33495;SDS011;19836;55.812;37.560;2023-03-14T16:09:11;4.07;;;3.17;;
33495;SDS011;19836;55.812;37.560;2023-03-14T16:11:37;3.15;;;2.50;;
33495;SDS011;19836;55.812;37.560;2023-03-14T16:14:03;4.20;;;2.67;;
33495;SDS011;19836;55.812;37.560;2023-03-14T16:16:29;4.30;;;2.80;;
33495;SDS011;19836;55.812;37.560;2023-03-14T16:18:55;3.53;;;2.78;;
33495;SDS011;19836;55.812;37.560;2023-03-14T16:21:21;3.42;;;2.90;;
33495;SDS011;19836;55.812;37.560;2023-03-14T16:23:47;3.78;;;2.70;;
33495;SDS011;19836;55.812;37.560;2023-03-14T16:26:20;2.83;;;2.47;;
33495;SDS011;19836;55.812;37.560;2023-03-14T16:28:46;4.68;;;3.03;;
33495;SDS011;19836;55.812;37.560;2023-03-14T16:31:18;3.92;;;2.97;;
33495;SDS011;19836;55.812;37.560;2023-03-14T16:36:15;6.22;;;2.70;;
33495;SDS011;19836;55.812;37.560;2023-03-14T16:38:42;3.20;;;2.50;;
33495;SDS011;19836;55.812;37.560;2023-03-14T16:41:10;3.65;;;2.78;;
33495;SDS011;19836;55.812;37.560;2023-03-14T16:50:14;3.92;;;3.10;;
33495;SDS011;19836;55.812;37.560;2023-03-14T16:52:40;3.33;;;2.25;;
33495;SDS011;19836;55.812;37.560;2023-03-14T16:55:06;3.00;;;2.28;;
33495;SDS011;19836;55.812;37.560;2023-03-14T16:57:40;4.28;;;3.22;;
33495;SDS011;19836;55.812;37.560;2023-03-14T17:00:12;3.78;;;2.78;;
33495;SDS011;19836;55.812;37.560;2023-03-14T17:02:42;3.80;;;3.08;;
33495;SDS011;19836;55.812;37.560;2023-03-14T17:05:14;4.85;;;2.85;;
33495;SDS011;19836;55.812;37.560;2023-03-14T17:07:40;5.38;;;3.08;;
33495;SDS011;19836;55.812;37.560;2023-03-14T17:10:06;2.95;;;1.98;;
33495;SDS011;19836;55.812;37.560;2023-03-14T17:27:45;4.22;;;3.05;;
33495;SDS011;19836;55.812;37.560;2023-03-14T17:40:06;3.75;;;2.40;;
33495;SDS011;19836;55.812;37.560;2023-03-14T17:42:49;3.47;;;2.78;;
33495;SDS011;19836;55.812;37.560;2023-03-14T17:45:40;4.25;;;2.60;;
33495;SDS011;19836;55.812;37.560;2023-03-14T17:48:09;5.93;;;2.90;;
33495;SDS011;19836;55.812;37.560;2023-03-14T17:50:38;4.35;;;2.22;;
33495;SDS011;19836;55.812;37.560;2023-03-14T17:53:07;3.63;;;2.50;;
33495;SDS011;19836;55.812;37.560;2023-03-14T17:55:34;4.30;;;2.47;;
33495;SDS011;19836;55.812;37.560;2023-03-14T17:58:07;4.22;;;2.55;;
33495;SDS011;19836;55.812;37.560;2023-03-14T18:00:35;3.33;;;2.35;;
33495;SDS011;19836;55.812;37.560;2023-03-14T18:03:04;3.80;;;2.30;;
33495;SDS011;19836;55.812;37.560;2023-03-14T18:13:43;3.80;;;2.63;;
33495;SDS011;19836;55.812;37.560;2023-03-14T18:20:05;2.97;;;2.33;;
33495;SDS011;19836;55.812;37.560;2023-03-14T18:23:35;3.78;;;2.28;;
33495;SDS011;19836;55.812;37.560;2023-03-14T18:36:08;2.42;;;2.10;;
33495;SDS011;19836;55.812;37.560;2023-03-14T18:42:43;3.88;;;1.92;;
33495;SDS011;19836;55.812;37.560;2023-03-14T18:45:10;2.30;;;1.25;;
33495;SDS011;19836;55.812;37.560;2023-03-14T18:47:36;3.20;;;2.35;;
33495;SDS011;19836;55.812;37.560;2023-03-14T18:50:03;3.67;;;2.40;;
33495;SDS011;19836;55.812;37.560;2023-03-14T18:53:02;2.50;;;2.10;;
33495;SDS011;19836;55.812;37.560;2023-03-14T18:55:34;3.33;;;1.95;;
33495;SDS011;19836;55.812;37.560;2023-03-14T18:58:39;2.72;;;1.67;;
33495;SDS011;19836;55.812;37.560;2023-03-14T19:01:24;2.88;;;2.00;;
33495;SDS011;19836;55.812;37.560;2023-03-14T19:04:01;2.80;;;1.75;;
33495;SDS011;19836;55.812;37.560;2023-03-14T19:06:28;2.83;;;2.10;;
33495;SDS011;19836;55.812;37.560;2023-03-14T19:08:58;3.78;;;2.05;;
33495;SDS011;19836;55.812;37.560;2023-03-14T19:11:27;3.90;;;1.90;;
33495;SDS011;19836;55.812;37.560;2023-03-14T19:13:56;2.50;;;1.50;;
33495;SDS011;19836;55.812;37.560;2023-03-14T19:16:24;3.17;;;2.00;;
33495;SDS011;19836;55.812;37.560;2023-03-14T19:18:53;2.80;;;1.90;;
33495;SDS011;19836;55.812;37.560;2023-03-14T19:23:56;2.33;;;1.60;;
33495;SDS011;19836;55.812;37.560;2023-03-14T19:26:22;2.20;;;1.70;;
33495;SDS011;19836;55.812;37.560;2023-03-14T19:28:49;1.95;;;1.13;;
33495;SDS011;19836;55.812;37.560;2023-03-14T19:31:20;2.90;;;1.67;;
33495;SDS011;19836;55.812;37.560;2023-03-14T19:33:53;2.90;;;1.80;;
33495;SDS011;19836;55.812;37.560;2023-03-14T19:36:21;2.17;;;1.50;;
33495;SDS011;19836;55.812;37.560;2023-03-14T19:38:49;3.20;;;1.73;;
33495;SDS011;19836;55.812;37.560;2023-03-14T19:41:39;3.45;;;1.55;;
33495;SDS011;19836;55.812;37.560;2023-03-14T19:44:06;1.60;;;1.40;;
33495;SDS011;19836;55.812;37.560;2023-03-14T19:46:33;3.00;;;1.65;;
33495;SDS011;19836;55.812;37.560;2023-03-14T19:50:27;1.15;;;1.05;;
33495;SDS011;19836;55.812;37.560;2023-03-14T19:52:54;2.60;;;1.45;;
33495;SDS011;19836;55.812;37.560;2023-03-14T19:55:22;2.63;;;1.50;;
33495;SDS011;19836;55.812;37.560;2023-03-14T20:00:19;2.63;;;1.50;;
33495;SDS011;19836;55.812;37.560;2023-03-14T20:02:49;1.50;;;1.40;;
33495;SDS011;19836;55.812;37.560;2023-03-14T20:05:21;1.60;;;1.05;;
33495;SDS011;19836;55.812;37.560;2023-03-14T20:07:48;1.75;;;1.00;;
33495;SDS011;19836;55.812;37.560;2023-03-14T20:10:19;1.92;;;1.75;;
33495;SDS011;19836;55.812;37.560;2023-03-14T20:12:49;1.00;;;0.98;;
33495;SDS011;19836;55.812;37.560;2023-03-14T20:15:19;2.63;;;1.90;;
33495;SDS011;19836;55.812;37.560;2023-03-14T20:17:47;2.33;;;1.85;;
33495;SDS011;19836;55.812;37.560;2023-03-14T20:20:14;1.60;;;1.13;;
33495;SDS011;19836;55.812;37.560;2023-03-14T20:22:40;2.00;;;1.30;;
33495;SDS011;19836;55.812;37.560;2023-03-14T20:25:08;2.03;;;1.40;;
33495;SDS011;19836;55.812;37.560;2023-03-14T20:27:39;1.40;;;0.95;;
33495;SDS011;19836;55.812;37.560;2023-03-14T20:30:06;1.52;;;1.00;;
33495;SDS011;19836;55.812;37.560;2023-03-14T20:32:41;2.33;;;1.63;;
33495;SDS011;19836;55.812;37.560;2023-03-14T20:35:12;1.58;;;1.23;;
33495;SDS011;19836;55.812;37.560;2023-03-14T20:37:38;2.10;;;1.40;;
33495;SDS011;19836;55.812;37.560;2023-03-14T20:40:06;1.88;;;1.40;;
33495;SDS011;19836;55.812;37.560;2023-03-14T20:42:36;1.63;;;1.30;;
33495;SDS011;19836;55.812;37.560;2023-03-14T20:45:03;2.63;;;1.15;;
33495;SDS011;19836;55.812;37.560;2023-03-14T20:47:35;0.95;;;0.80;;
33495;SDS011;19836;55.812;37.560;2023-03-14T20:50:05;2.08;;;1.30;;
33495;SDS011;19836;55.812;37.560;2023-03-14T20:52:33;3.53;;;1.48;;
33495;SDS011;19836;55.812;37.560;2023-03-14T20:54:59;1.30;;;0.93;;
33495;SDS011;19836;55.812;37.560;2023-03-14T20:57:26;2.13;;;1.27;;
33495;SDS011;19836;55.812;37.560;2023-03-14T20:59:55;1.47;;;1.10;;
33495;SDS011;19836;55.812;37.560;2023-03-14T21:02:22;1.50;;;1.40;;
33495;SDS011;19836;55.812;37.560;2023-03-14T21:04:48;1.10;;;1.00;;
33495;SDS011;19836;55.812;37.560;2023-03-14T21:07:18;1.57;;;1.03;;
33495;SDS011;19836;55.812;37.560;2023-03-14T21:09:45;1.65;;;1.40;;
33495;SDS011;19836;55.812;37.560;2023-03-14T21:12:11;2.55;;;1.40;;
33495;SDS011;19836;55.812;37.560;2023-03-14T21:14:38;2.17;;;1.50;;
33495;SDS011;19836;55.812;37.560;2023-03-14T21:17:07;1.55;;;1.30;;
33495;SDS011;19836;55.812;37.560;2023-03-14T21:19:33;1.58;;;1.20;;
33495;SDS011;19836;55.812;37.560;2023-03-14T21:22:00;2.88;;;1.23;;
33495;SDS011;19836;55.812;37.560;2023-03-14T21:24:29;2.00;;;1.10;;
33495;SDS011;19836;55.812;37.560;2023-03-14T21:26:55;1.95;;;1.10;;
33495;SDS011;19836;55.812;37.560;2023-03-14T21:29:22;1.48;;;1.13;;
33495;SDS011;19836;55.812;37.560;2023-03-14T21:31:49;1.85;;;1.23;;
33495;SDS011;19836;55.812;37.560;2023-03-14T21:34:16;3.85;;;1.20;;
33495;SDS011;19836;55.812;37.560;2023-03-14T21:36:48;2.60;;;1.60;;
33495;SDS011;19836;55.812;37.560;2023-03-14T21:39:14;1.85;;;1.10;;
33495;SDS011;19836;55.812;37.560;2023-03-14T21:41:41;1.52;;;1.10;;
33495;SDS011;19836;55.812;37.560;2023-03-14T21:44:07;2.28;;;1.27;;
33495;SDS011;19836;55.812;37.560;2023-03-14T21:46:34;1.75;;;1.10;;
33495;SDS011;19836;55.812;37.560;2023-03-14T21:49:03;4.53;;;1.55;;
33495;SDS011;19836;55.812;37.560;2023-03-14T21:51:29;1.45;;;1.20;;
33495;SDS011;19836;55.812;37.560;2023-03-14T21:56:26;1.58;;;1.10;;
33495;SDS011;19836;55.812;37.560;2023-03-14T21:58:53;1.60;;;1.25;;
33495;SDS011;19836;55.812;37.560;2023-03-14T22:01:24;1.63;;;1.10;;
33495;SDS011;19836;55.812;37.560;2023-03-14T22:03:51;1.50;;;1.17;;
33495;SDS011;19836;55.812;37.560;2023-03-14T22:06:18;1.80;;;1.15;;
33495;SDS011;19836;55.812;37.560;2023-03-14T22:08:44;1.75;;;1.17;;
33495;SDS011;19836;55.812;37.560;2023-03-14T22:11:11;1.13;;;0.88;;
33495;SDS011;19836;55.812;37.560;2023-03-14T22:13:37;1.50;;;1.38;;
33495;SDS011;19836;55.812;37.560;2023-03-14T22:16:09;2.40;;;1.42;;
33495;SDS011;19836;55.812;37.560;2023-03-14T22:18:36;1.65;;;1.30;;
33495;SDS011;19836;55.812;37.560;2023-03-14T22:21:04;1.40;;;1.20;;
33495;SDS011;19836;55.812;37.560;2023-03-14T22:23:55;1.73;;;1.40;;
33495;SDS011;19836;55.812;37.560;2023-03-14T22:26:22;2.75;;;1.20;;
33495;SDS011;19836;55.812;37.560;2023-03-14T22:28:50;1.55;;;1.30;;
33495;SDS011;19836;55.812;37.560;2023-03-14T22:31:16;2.85;;;1.00;;
33495;SDS011;19836;55.812;37.560;2023-03-14T22:33:43;2.10;;;1.13;;
33495;SDS011;19836;55.812;37.560;2023-03-14T22:36:10;1.90;;;1.65;;
33495;SDS011;19836;55.812;37.560;2023-03-14T22:38:36;2.17;;;1.10;;
33495;SDS011;19836;55.812;37.560;2023-03-14T22:41:03;1.98;;;1.50;;
33495;SDS011;19836;55.812;37.560;2023-03-14T22:43:30;2.92;;;1.45;;
33495;SDS011;19836;55.812;37.560;2023-03-14T22:46:00;1.67;;;1.38;;
33495;SDS011;19836;55.812;37.560;2023-03-14T22:48:28;2.05;;;1.35;;
33495;SDS011;19836;55.812;37.560;2023-03-14T22:50:56;1.67;;;1.25;;
33495;SDS011;19836;55.812;37.560;2023-03-14T22:53:23;2.08;;;1.30;;
33495;SDS011;19836;55.812;37.560;2023-03-14T22:55:59;1.50;;;1.25;;
33495;SDS011;19836;55.812;37.560;2023-03-14T22:58:27;2.40;;;1.55;;
33495;SDS011;19836;55.812;37.560;2023-03-14T23:00:54;2.47;;;1.63;;
33495;SDS011;19836;55.812;37.560;2023-03-14T23:03:20;2.10;;;1.60;;
33495;SDS011;19836;55.812;37.560;2023-03-14T23:05:47;2.33;;;1.38;;
33495;SDS011;19836;55.812;37.560;2023-03-14T23:08:13;1.95;;;1.70;;
33495;SDS011;19836;55.812;37.560;2023-03-14T23:10:40;2.22;;;1.50;;
33495;SDS011;19836;55.812;37.560;2023-03-14T23:13:08;2.08;;;1.48;;
33495;SDS011;19836;55.812;37.560;2023-03-14T23:15:39;1.65;;;1.25;;
33495;SDS011;19836;55.812;37.560;2023-03-14T23:18:08;3.08;;;1.58;;
33495;SDS011;19836;55.812;37.560;2023-03-14T23:20:37;1.90;;;1.70;;
33495;SDS011;19836;55.812;37.560;2023-03-14T23:23:04;1.88;;;1.60;;
33495;SDS011;19836;55.812;37.560;2023-03-14T23:25:34;3.63;;;1.60;;
33495;SDS011;19836;55.812;37.560;2023-03-14T23:28:01;2.00;;;1.25;;
33495;SDS011;19836;55.812;37.560;2023-03-14T23:30:36;1.77;;;1.50;;
33495;SDS011;19836;55.812;37.560;2023-03-14T23:33:05;2.53;;;1.80;;
33495;SDS011;19836;55.812;37.560;2023-03-14T23:35:31;1.75;;;1.58;;
33495;SDS011;19836;55.812;37.560;2023-03-14T23:37:57;2.20;;;1.50;;
33495;SDS011;19836;55.812;37.560;2023-03-14T23:40:23;2.80;;;1.85;;
33495;SDS011;19836;55.812;37.560;2023-03-14T23:42:50;2.95;;;1.52;;
33495;SDS011;19836;55.812;37.560;2023-03-14T23:45:17;2.67;;;1.90;;
33495;SDS011;19836;55.812;37.560;2023-03-14T23:47:44;3.72;;;1.80;;
33495;SDS011;19836;55.812;37.560;2023-03-14T23:50:10;1.65;;;1.55;;
33495;SDS011;19836;55.812;37.560;2023-03-14T23:52:36;2.67;;;1.65;;
33495;SDS011;19836;55.812;37.560;2023-03-14T23:55:03;2.17;;;1.83;;
33495;SDS011;19836;55.812;37.560;2023-03-14T23:57:30;2.42;;;2.03;;
33495;SDS011;19836;55.812;37.560;2023-03-14T23:59:57;3.00;;;1.70;;
